Terminal Aerodrome Forecast
Issued by NWS

Home | Current Version | Previous Version | Text Only | Print | Product List | Glossary On
Versions: 1 2 3 4 5 6 7 8 9 10 11 12 13
000
FTPA31 PHFO 282330
TAFHKO
TAF
PHKO 282330Z 2900/2924 23009KT P6SM FEW035 SCT060
     FM290400 18006KT P6SM FEW030 BKN060
     FM291400 09005KT P6SM FEW050
     FM291900 23009KT P6SM FEW030 SCT060=

USA.gov is the U.S. government's official web portal to all federal, state and local government web resources and services.